createdAt,value
2018-05-09T00:00:24.407Z,0.00
2018-05-09T00:01:23.392Z,0.00
2018-05-09T00:03:23.774Z,0.00
2018-05-09T00:04:24.268Z,0.00
2018-05-09T00:06:24.301Z,0.00
2018-05-09T00:07:24.164Z,0.00
2018-05-09T00:09:26.183Z,0.00
2018-05-09T00:10:25.154Z,0.00
2018-05-09T00:12:25.686Z,0.00
2018-05-09T00:13:25.588Z,0.00
2018-05-09T00:15:25.640Z,0.00
2018-05-09T00:16:25.584Z,0.00
2018-05-09T00:18:26.073Z,0.00
2018-05-09T00:19:25.983Z,0.00
2018-05-09T00:21:24.480Z,0.00
2018-05-09T00:22:24.133Z,0.00
2018-05-09T00:24:24.576Z,0.00
2018-05-09T00:25:25.126Z,0.00
2018-05-09T00:27:22.720Z,0.00
2018-05-09T00:28:22.697Z,0.00
2018-05-09T00:30:25.617Z,0.00
2018-05-09T00:31:24.119Z,0.00
2018-05-09T00:33:25.314Z,0.00
2018-05-09T00:34:27.105Z,0.00
2018-05-09T00:36:25.787Z,0.00
2018-05-09T00:37:25.792Z,0.00
2018-05-09T00:39:26.736Z,0.00
2018-05-09T00:40:26.793Z,0.00
2018-05-09T00:42:22.795Z,0.00
2018-05-09T00:43:22.769Z,0.00
2018-05-09T00:45:23.696Z,0.00
2018-05-09T00:46:23.670Z,0.00
2018-05-09T00:48:25.148Z,0.00
2018-05-09T00:49:24.695Z,0.00
2018-05-09T00:51:25.577Z,0.00
2018-05-09T00:52:26.132Z,0.00
2018-05-09T00:54:26.113Z,0.00
2018-05-09T00:55:27.112Z,0.00
2018-05-09T00:57:26.004Z,0.00
2018-05-09T00:58:27.001Z,0.00
2018-05-09T01:00:27.959Z,0.00
2018-05-09T01:01:29.040Z,0.00
2018-05-09T01:03:25.965Z,0.00
2018-05-09T01:04:25.625Z,0.00
2018-05-09T01:06:27.667Z,0.00
2018-05-09T01:07:26.575Z,0.00
2018-05-09T01:09:32.882Z,0.00
2018-05-09T01:10:32.014Z,0.00
2018-05-09T01:12:32.513Z,0.00
2018-05-09T01:13:32.958Z,0.00
2018-05-09T01:15:33.886Z,0.00
2018-05-09T01:16:34.922Z,0.00
2018-05-09T01:18:34.386Z,0.00
2018-05-09T01:19:34.372Z,0.00
2018-05-09T01:21:34.890Z,0.00
2018-05-09T01:22:34.924Z,0.00
2018-05-09T01:24:36.306Z,0.00
2018-05-09T01:25:35.325Z,0.00
2018-05-09T01:27:35.746Z,0.00
2018-05-09T01:28:35.697Z,0.00
2018-05-09T01:30:36.189Z,0.00
2018-05-09T01:31:36.721Z,0.00
2018-05-09T01:33:38.187Z,0.00
2018-05-09T01:34:37.606Z,0.00
2018-05-09T01:36:39.601Z,0.00
2018-05-09T01:37:38.100Z,0.00
2018-05-09T01:39:39.555Z,0.00
2018-05-09T01:40:38.564Z,0.00
2018-05-09T01:42:39.075Z,0.00
2018-05-09T01:43:39.049Z,0.00
2018-05-09T01:45:39.487Z,0.00
2018-05-09T01:46:39.515Z,0.00
2018-05-09T01:48:39.942Z,0.00
2018-05-09T01:49:39.938Z,0.00
2018-05-09T01:51:41.325Z,0.00
2018-05-09T01:52:40.367Z,0.00
2018-05-09T01:54:41.259Z,0.00
2018-05-09T01:55:40.729Z,0.00
2018-05-09T01:57:42.764Z,0.00
2018-05-09T01:58:41.252Z,0.00
2018-05-09T02:00:43.681Z,0.00
2018-05-09T02:01:42.713Z,0.00
2018-05-09T02:03:40.610Z,0.00
2018-05-09T02:04:39.713Z,0.00
2018-05-09T02:06:38.668Z,0.00
2018-05-09T02:07:35.696Z,0.00
2018-05-09T02:09:36.550Z,0.00
2018-05-09T02:10:36.133Z,0.00
2018-05-09T02:12:41.082Z,0.00
2018-05-09T02:13:40.145Z,0.00
2018-05-09T02:15:38.600Z,0.00
2018-05-09T02:16:37.956Z,0.00
2018-05-09T02:18:39.395Z,0.00
2018-05-09T02:19:38.541Z,0.00
2018-05-09T02:21:40.372Z,0.00
2018-05-09T02:22:41.021Z,0.00
2018-05-09T02:24:39.915Z,0.00
2018-05-09T02:25:39.356Z,0.00
2018-05-09T02:27:39.867Z,0.00
2018-05-09T02:28:39.873Z,0.00
2018-05-09T02:30:38.769Z,0.00
2018-05-09T02:31:38.816Z,0.00
2018-05-09T02:33:38.428Z,0.00
2018-05-09T02:34:38.839Z,0.00
2018-05-09T02:36:36.877Z,0.00
2018-05-09T02:37:36.324Z,0.00
2018-05-09T02:39:37.840Z,0.00
2018-05-09T02:40:36.886Z,0.00
2018-05-09T02:42:38.243Z,0.00
2018-05-09T02:43:37.250Z,0.00
2018-05-09T02:45:39.769Z,0.00
2018-05-09T02:46:39.735Z,0.00
2018-05-09T02:48:40.763Z,0.00
2018-05-09T02:49:40.680Z,0.00
2018-05-09T02:51:41.640Z,0.00
2018-05-09T02:52:40.841Z,0.00
2018-05-09T02:54:42.090Z,0.00
2018-05-09T02:55:41.139Z,0.00
2018-05-09T02:57:42.544Z,0.00
2018-05-09T02:58:41.603Z,0.00
2018-05-09T03:00:42.066Z,0.00
2018-05-09T03:01:42.124Z,0.00
2018-05-09T03:03:44.476Z,0.00
2018-05-09T03:04:43.480Z,0.00
2018-05-09T03:06:41.031Z,0.00
2018-05-09T03:07:42.006Z,0.00
2018-05-09T03:09:37.009Z,0.00
2018-05-09T03:10:36.436Z,0.00
2018-05-09T03:12:38.314Z,0.00
2018-05-09T03:13:36.815Z,0.00
2018-05-09T03:15:41.390Z,0.00
2018-05-09T03:16:41.891Z,0.00
2018-05-09T03:18:42.250Z,4.00
2018-05-09T03:19:42.347Z,0.00
2018-05-09T03:21:43.700Z,4.00
2018-05-09T03:22:43.230Z,4.00
2018-05-09T03:24:43.683Z,4.00
2018-05-09T03:25:43.722Z,4.00
2018-05-09T03:27:44.175Z,4.00
2018-05-09T03:28:45.147Z,8.00
2018-05-09T03:30:47.233Z,8.00
2018-05-09T03:31:46.137Z,12.00
2018-05-09T03:33:46.751Z,16.00
2018-05-09T03:34:47.310Z,16.00
2018-05-09T03:36:46.263Z,20.00
2018-05-09T03:37:45.895Z,20.00
2018-05-09T03:39:46.391Z,28.00
2018-05-09T03:40:46.933Z,32.00
2018-05-09T03:42:46.931Z,40.00
2018-05-09T03:43:48.347Z,48.00
2018-05-09T03:45:48.279Z,56.00
2018-05-09T03:46:47.488Z,60.00
2018-05-09T03:48:48.792Z,72.00
2018-05-09T03:49:47.944Z,80.00
2018-05-09T03:51:50.397Z,96.00
2018-05-09T03:52:49.329Z,100.00
2018-05-09T03:54:51.302Z,120.00
2018-05-09T03:55:51.873Z,128.00
2018-05-09T03:57:50.327Z,148.00
2018-05-09T03:58:48.972Z,160.00
2018-05-09T04:00:51.435Z,188.00
2018-05-09T04:01:49.320Z,200.00
2018-05-09T04:03:50.396Z,220.00
2018-05-09T04:04:50.356Z,240.00
2018-05-09T04:06:52.892Z,268.00
2018-05-09T04:07:50.292Z,284.00
2018-05-09T04:09:50.767Z,320.00
2018-05-09T04:10:51.237Z,336.00
2018-05-09T04:12:54.224Z,372.00
2018-05-09T04:13:53.230Z,388.00
2018-05-09T04:15:51.669Z,424.00
2018-05-09T04:16:51.602Z,444.00
2018-05-09T04:18:52.583Z,484.00
2018-05-09T04:19:52.274Z,504.00
2018-05-09T04:21:55.751Z,548.00
2018-05-09T04:22:53.668Z,572.00
2018-05-09T04:24:56.715Z,616.00
2018-05-09T04:25:55.607Z,632.00
2018-05-09T04:27:52.044Z,672.00
2018-05-09T04:28:52.142Z,696.00
2018-05-09T04:30:52.503Z,752.00
2018-05-09T04:31:54.543Z,776.00
2018-05-09T04:33:53.963Z,820.00
2018-05-09T04:34:53.925Z,832.00
2018-05-09T04:36:54.948Z,852.00
2018-05-09T04:37:54.994Z,868.00
2018-05-09T04:39:55.351Z,904.00
2018-05-09T04:40:56.036Z,920.00
2018-05-09T04:42:55.366Z,964.00
2018-05-09T04:43:55.816Z,1004.00
2018-05-09T04:45:51.201Z,1092.00
2018-05-09T04:46:51.276Z,1128.00
2018-05-09T04:48:50.262Z,1228.00
2018-05-09T04:49:51.224Z,1296.00
2018-05-09T04:51:51.287Z,1548.00
2018-05-09T04:52:50.785Z,1580.00
2018-05-09T04:54:51.678Z,1600.00
2018-05-09T04:55:51.361Z,1628.00
2018-05-09T04:57:54.255Z,1652.00
2018-05-09T04:58:52.875Z,1684.00
2018-05-09T05:00:53.246Z,1720.00
2018-05-09T05:01:58.243Z,1756.00
2018-05-09T05:03:58.893Z,1800.00
2018-05-09T05:04:54.754Z,1832.00
2018-05-09T05:07:10.915Z,1876.00
2018-05-09T05:07:58.931Z,1900.00
2018-05-09T05:10:07.837Z,1952.00
2018-05-09T05:13:05.197Z,2036.00
2018-05-09T05:14:05.667Z,2072.00
2018-05-09T05:16:05.216Z,2108.00
2018-05-09T05:17:06.243Z,2120.00
2018-05-09T05:19:06.567Z,2148.00
2018-05-09T05:20:06.668Z,2172.00
2018-05-09T05:22:07.098Z,2228.00
2018-05-09T05:23:08.148Z,2244.00
2018-05-09T05:25:04.037Z,2280.00
2018-05-09T05:26:03.032Z,2304.00
2018-05-09T05:28:01.026Z,2356.00
2018-05-09T05:29:01.027Z,2380.00
2018-05-09T05:31:02.938Z,2436.00
2018-05-09T05:32:03.051Z,2448.00
2018-05-09T05:34:03.393Z,2472.00
2018-05-09T05:35:01.946Z,2472.00
2018-05-09T05:37:09.935Z,2496.00
2018-05-09T05:38:03.386Z,2480.00
2018-05-09T05:40:06.430Z,2412.00
2018-05-09T05:41:02.906Z,2376.00
2018-05-09T05:43:03.331Z,2344.00
2018-05-09T05:44:04.322Z,2356.00
2018-05-09T05:46:01.324Z,2368.00
2018-05-09T05:47:01.811Z,2376.00
2018-05-09T05:49:01.690Z,2388.00
2018-05-09T05:50:01.726Z,2376.00
2018-05-09T05:51:59.739Z,2368.00
2018-05-09T05:53:00.186Z,2368.00
2018-05-09T05:55:00.629Z,2360.00
2018-05-09T05:56:00.268Z,2356.00
2018-05-09T05:58:01.117Z,2356.00
2018-05-09T05:59:00.616Z,2356.00
2018-05-09T06:00:59.574Z,2364.00
2018-05-09T06:01:59.636Z,2368.00
2018-05-09T06:03:54.596Z,2368.00
2018-05-09T06:04:54.560Z,2368.00
2018-05-09T06:06:56.037Z,2376.00
2018-05-09T06:07:56.561Z,2380.00
2018-05-09T06:09:54.469Z,2388.00
2018-05-09T06:10:53.440Z,2388.00
2018-05-09T06:12:53.947Z,2392.00
2018-05-09T06:13:54.926Z,2408.00
2018-05-09T06:15:54.449Z,2420.00
2018-05-09T06:16:53.847Z,2440.00
2018-05-09T06:18:54.361Z,2424.00
2018-05-09T06:19:57.318Z,2424.00
2018-05-09T06:21:56.347Z,2436.00
2018-05-09T06:22:55.803Z,2424.00
2018-05-09T06:24:59.787Z,2420.00
2018-05-09T06:25:59.887Z,2420.00
2018-05-09T06:27:56.797Z,2416.00
2018-05-09T06:28:58.302Z,2408.00
2018-05-09T06:30:54.896Z,2400.00
2018-05-09T06:31:55.717Z,2384.00
2018-05-09T06:33:55.820Z,2404.00
2018-05-09T06:34:55.327Z,2412.00
2018-05-09T06:36:55.742Z,2432.00
2018-05-09T06:37:56.283Z,2444.00
2018-05-09T06:39:57.758Z,2452.00
2018-05-09T06:40:56.222Z,2456.00
2018-05-09T06:42:56.748Z,2452.00
2018-05-09T06:43:57.220Z,2480.00
2018-05-09T06:45:53.688Z,2492.00
2018-05-09T06:46:53.137Z,2480.00
2018-05-09T06:48:53.122Z,2532.00
2018-05-09T06:49:53.088Z,2532.00
2018-05-09T06:51:54.526Z,2552.00
2018-05-09T06:52:53.519Z,2564.00
2018-05-09T06:54:52.506Z,2576.00
2018-05-09T06:55:51.617Z,2568.00
2018-05-09T06:57:52.075Z,2576.00
2018-05-09T06:58:52.099Z,2568.00
2018-05-09T07:00:52.548Z,2580.00
2018-05-09T07:01:52.539Z,2572.00
2018-05-09T07:03:52.994Z,2568.00
2018-05-09T07:04:52.992Z,2576.00
2018-05-09T07:06:53.468Z,2584.00
2018-05-09T07:07:53.502Z,2588.00
2018-05-09T07:09:50.911Z,2580.00
2018-05-09T07:10:50.949Z,2580.00
2018-05-09T07:12:52.360Z,2560.00
2018-05-09T07:13:51.871Z,2544.00
2018-05-09T07:15:47.906Z,2556.00
2018-05-09T07:16:47.355Z,2564.00
2018-05-09T07:18:47.333Z,2568.00
2018-05-09T07:19:47.406Z,2576.00
2018-05-09T07:21:45.279Z,2568.00
2018-05-09T07:22:45.756Z,2592.00
2018-05-09T07:24:44.256Z,2576.00
2018-05-09T07:25:43.256Z,2572.00
2018-05-09T07:27:41.223Z,2576.00
2018-05-09T07:28:41.159Z,2580.00
2018-05-09T07:30:41.168Z,2580.00
2018-05-09T07:31:39.144Z,2596.00
2018-05-09T07:33:37.741Z,2616.00
2018-05-09T07:34:37.256Z,2600.00
2018-05-09T07:36:37.722Z,2604.00
2018-05-09T07:37:37.714Z,2608.00
2018-05-09T07:39:38.219Z,2608.00
2018-05-09T07:40:39.228Z,2604.00
2018-05-09T07:42:39.668Z,2592.00
2018-05-09T07:43:38.701Z,2592.00
2018-05-09T07:45:36.606Z,2580.00
2018-05-09T07:46:36.156Z,2576.00
2018-05-09T07:48:31.571Z,2576.00
2018-05-09T07:49:32.549Z,2568.00
2018-05-09T07:51:31.012Z,2564.00
2018-05-09T07:52:30.541Z,2568.00
2018-05-09T07:54:32.186Z,2572.00
2018-05-09T07:55:30.301Z,2572.00
2018-05-09T07:57:30.653Z,2572.00
2018-05-09T07:58:31.192Z,2580.00
2018-05-09T08:00:26.629Z,2588.00
2018-05-09T08:01:26.574Z,2596.00
2018-05-09T08:03:24.540Z,2608.00
2018-05-09T08:04:24.601Z,2596.00
2018-05-09T08:06:22.521Z,2600.00
2018-05-09T08:07:22.483Z,2600.00
2018-05-09T08:09:20.986Z,2612.00
2018-05-09T08:10:21.440Z,2612.00
2018-05-09T08:12:17.597Z,2604.00
2018-05-09T08:13:16.576Z,2616.00
2018-05-09T08:15:13.056Z,2620.00
2018-05-09T08:16:12.553Z,2628.00
2018-05-09T08:18:12.046Z,2620.00
2018-05-09T08:19:12.457Z,2660.00
2018-05-09T08:21:10.131Z,2628.00
2018-05-09T08:22:08.714Z,2624.00
2018-05-09T08:24:06.595Z,2636.00
2018-05-09T08:25:06.106Z,2640.00
2018-05-09T08:27:03.170Z,2632.00
2018-05-09T08:28:01.619Z,2652.00
2018-05-09T08:30:02.114Z,2624.00
2018-05-09T08:31:04.039Z,2632.00
2018-05-09T08:33:01.192Z,2636.00
2018-05-09T08:34:00.978Z,2624.00
2018-05-09T08:35:58.125Z,2616.00
2018-05-09T08:36:59.583Z,2608.00
2018-05-09T08:38:54.056Z,2620.00
2018-05-09T08:39:54.079Z,2628.00
2018-05-09T08:41:54.581Z,2636.00
2018-05-09T08:42:55.541Z,2640.00
2018-05-09T08:44:53.527Z,2636.00
2018-05-09T08:45:53.510Z,2664.00
2018-05-09T08:47:51.638Z,2652.00
2018-05-09T08:48:52.642Z,2636.00
2018-05-09T08:50:50.189Z,2636.00
2018-05-09T08:51:48.757Z,2620.00
2018-05-09T08:53:46.918Z,2608.00
2018-05-09T08:54:46.894Z,2624.00
2018-05-09T08:56:45.838Z,2604.00
2018-05-09T08:57:44.828Z,2580.00
2018-05-09T08:59:43.327Z,2588.00
2018-05-09T09:00:43.818Z,2604.00
2018-05-09T09:02:39.909Z,2588.00
2018-05-09T09:03:38.904Z,2620.00
2018-05-09T09:05:34.999Z,2576.00
2018-05-09T09:06:35.380Z,2568.00
2018-05-09T09:08:35.838Z,2568.00
2018-05-09T09:09:36.308Z,2576.00
2018-05-09T09:11:33.414Z,2584.00
2018-05-09T09:12:33.379Z,2564.00
2018-05-09T09:14:32.296Z,2560.00
2018-05-09T09:15:31.345Z,2552.00
2018-05-09T09:17:27.293Z,2544.00
2018-05-09T09:18:27.326Z,2544.00
2018-05-09T09:20:28.210Z,2532.00
2018-05-09T09:21:27.710Z,2528.00
2018-05-09T09:23:26.197Z,2524.00
2018-05-09T09:24:25.710Z,2524.00
2018-05-09T09:26:23.799Z,2540.00
2018-05-09T09:27:23.912Z,2516.00
2018-05-09T09:29:22.277Z,2512.00
2018-05-09T09:30:21.796Z,2504.00
2018-05-09T09:32:19.937Z,2512.00
2018-05-09T09:33:19.946Z,2516.00
2018-05-09T09:35:16.886Z,2496.00
2018-05-09T09:36:17.380Z,2496.00
2018-05-09T09:38:11.866Z,2496.00
2018-05-09T09:39:12.363Z,2496.00
2018-05-09T09:41:09.944Z,2484.00
2018-05-09T09:42:10.851Z,2480.00
2018-05-09T09:44:11.491Z,2472.00
2018-05-09T09:45:11.455Z,2456.00
2018-05-09T09:47:08.933Z,2452.00
2018-05-09T09:48:09.401Z,2460.00
2018-05-09T09:50:06.443Z,2424.00
2018-05-09T09:51:06.878Z,2412.00
2018-05-09T09:53:02.356Z,2404.00
2018-05-09T09:54:02.346Z,2392.00
2018-05-09T09:56:00.843Z,2376.00
2018-05-09T09:57:00.810Z,2400.00
2018-05-09T09:58:58.794Z,2380.00
2018-05-09T09:59:59.359Z,2396.00
2018-05-09T10:01:56.950Z,2424.00
2018-05-09T10:02:57.396Z,2372.00
2018-05-09T10:04:52.393Z,2356.00
2018-05-09T10:05:53.358Z,2348.00
2018-05-09T10:07:50.440Z,2348.00
2018-05-09T10:08:48.338Z,2340.00
2018-05-09T10:10:44.812Z,2352.00
2018-05-09T10:11:44.419Z,2340.00
2018-05-09T10:13:42.879Z,2340.00
2018-05-09T10:14:43.307Z,2340.00
2018-05-09T10:16:38.400Z,2328.00
2018-05-09T10:17:38.409Z,2328.00
2018-05-09T10:19:34.373Z,2320.00
2018-05-09T10:20:34.391Z,2348.00
2018-05-09T10:22:36.320Z,2332.00
2018-05-09T10:23:34.831Z,2320.00
2018-05-09T10:25:32.813Z,2316.00
2018-05-09T10:26:33.811Z,2320.00
2018-05-09T10:28:30.762Z,2316.00
2018-05-09T10:29:30.806Z,2304.00
2018-05-09T10:31:26.788Z,2292.00
2018-05-09T10:32:26.728Z,2284.00
2018-05-09T10:34:23.212Z,2272.00
2018-05-09T10:35:24.206Z,2276.00
2018-05-09T10:37:19.698Z,2276.00
2018-05-09T10:38:19.168Z,2272.00
2018-05-09T10:40:18.191Z,2280.00
2018-05-09T10:41:18.624Z,2336.00
2018-05-09T10:43:13.897Z,2276.00
2018-05-09T10:44:13.909Z,2284.00
2018-05-09T10:46:11.314Z,2284.00
2018-05-09T10:47:09.923Z,2292.00
2018-05-09T10:49:05.833Z,2296.00
2018-05-09T10:50:05.809Z,2280.00
2018-05-09T10:52:03.811Z,2276.00
2018-05-09T10:53:03.852Z,2252.00
2018-05-09T10:55:02.767Z,2256.00
2018-05-09T10:56:02.758Z,2264.00
2018-05-09T10:57:59.900Z,2284.00
2018-05-09T10:59:00.342Z,2256.00
2018-05-09T11:01:00.335Z,2284.00
2018-05-09T11:02:02.315Z,2236.00
2018-05-09T11:03:58.810Z,2224.00
2018-05-09T11:04:58.468Z,2236.00
2018-05-09T11:06:56.915Z,2236.00
2018-05-09T11:07:56.457Z,2220.00
2018-05-09T11:09:52.407Z,2216.00
2018-05-09T11:10:52.467Z,2244.00
2018-05-09T11:12:48.899Z,2228.00
2018-05-09T11:13:48.401Z,2244.00
2018-05-09T11:15:46.366Z,2240.00
2018-05-09T11:16:46.887Z,2232.00
2018-05-09T11:18:45.840Z,2240.00
2018-05-09T11:19:45.333Z,2316.00
2018-05-09T11:21:43.456Z,2272.00
2018-05-09T11:22:42.576Z,2264.00
2018-05-09T11:24:40.130Z,2260.00
2018-05-09T11:25:39.051Z,2264.00
2018-05-09T11:27:34.531Z,2280.00
2018-05-09T11:28:36.016Z,2332.00
2018-05-09T11:30:31.515Z,2328.00
2018-05-09T11:31:30.500Z,2328.00
2018-05-09T11:33:26.497Z,2336.00
2018-05-09T11:34:26.489Z,2344.00
2018-05-09T11:36:24.977Z,2352.00
2018-05-09T11:37:24.949Z,2356.00
2018-05-09T11:39:23.420Z,2380.00
2018-05-09T11:40:22.370Z,2380.00
2018-05-09T11:42:21.362Z,2360.00
2018-05-09T11:43:20.499Z,2356.00
2018-05-09T11:45:19.037Z,2368.00
2018-05-09T11:46:18.647Z,2388.00
2018-05-09T11:48:14.592Z,2352.00
2018-05-09T11:49:15.597Z,2348.00
2018-05-09T11:51:10.554Z,2324.00
2018-05-09T11:52:11.067Z,2332.00
2018-05-09T11:54:06.545Z,2336.00
2018-05-09T11:55:07.543Z,2344.00
2018-05-09T11:57:02.542Z,2352.00
2018-05-09T11:58:03.433Z,2332.00
2018-05-09T11:59:58.545Z,2320.00
2018-05-09T12:00:59.462Z,2316.00
2018-05-09T12:02:56.976Z,2324.00
2018-05-09T12:03:57.477Z,2344.00
2018-05-09T12:05:53.446Z,2380.00
2018-05-09T12:06:52.397Z,2388.00
2018-05-09T12:08:50.363Z,2396.00
2018-05-09T12:09:48.386Z,2404.00
2018-05-09T12:11:46.490Z,2400.00
2018-05-09T12:12:46.507Z,2428.00
2018-05-09T12:14:44.500Z,2444.00
2018-05-09T12:15:44.470Z,2416.00
2018-05-09T12:17:42.935Z,2392.00
2018-05-09T12:18:42.466Z,2372.00
2018-05-09T12:20:39.442Z,2336.00
2018-05-09T12:21:38.472Z,2312.00
2018-05-09T12:23:34.456Z,2288.00
2018-05-09T12:24:34.519Z,2304.00
2018-05-09T12:26:30.457Z,2276.00
2018-05-09T12:27:30.441Z,2272.00
2018-05-09T12:29:27.409Z,2288.00
2018-05-09T12:30:28.405Z,2300.00
2018-05-09T12:32:24.366Z,2364.00
2018-05-09T12:34:39.856Z,2404.00
2018-05-09T12:35:39.366Z,2412.00
2018-05-09T12:37:37.873Z,2432.00
2018-05-09T12:38:38.316Z,2444.00
2018-05-09T12:40:33.485Z,2432.00
2018-05-09T12:41:33.488Z,2424.00
2018-05-09T12:43:29.448Z,2460.00
2018-05-09T12:44:29.434Z,2456.00
2018-05-09T12:46:27.948Z,2484.00
2018-05-09T12:47:27.569Z,2540.00
2018-05-09T12:49:23.969Z,2616.00
2018-05-09T12:50:24.490Z,2572.00
2018-05-09T12:52:19.515Z,2576.00
2018-05-09T12:53:19.475Z,2576.00
2018-05-09T12:55:16.433Z,2572.00
2018-05-09T12:56:15.434Z,2552.00
2018-05-09T12:58:11.425Z,2552.00
2018-05-09T12:59:11.425Z,2552.00
2018-05-09T13:01:08.814Z,2512.00
2018-05-09T13:02:07.383Z,2516.00
2018-05-09T13:04:05.852Z,2524.00
2018-05-09T13:05:05.339Z,2512.00
2018-05-09T13:07:01.848Z,2536.00
2018-05-09T13:08:01.812Z,2540.00
2018-05-09T13:09:58.274Z,2572.00
2018-05-09T13:10:57.294Z,2576.00
2018-05-09T13:12:53.225Z,2564.00
2018-05-09T13:13:53.228Z,2552.00
2018-05-09T13:15:51.155Z,2612.00
2018-05-09T13:16:51.188Z,2636.00
2018-05-09T13:18:50.131Z,2724.00
2018-05-09T13:19:49.327Z,2728.00
2018-05-09T13:21:47.772Z,2752.00
2018-05-09T13:22:47.308Z,2744.00
2018-05-09T13:24:44.269Z,2732.00
2018-05-09T13:25:45.277Z,2752.00
2018-05-09T13:27:40.746Z,2728.00
2018-05-09T13:28:40.215Z,2704.00
2018-05-09T13:30:40.183Z,2820.00
2018-05-09T13:31:38.401Z,2936.00
2018-05-09T13:33:35.354Z,3076.00
2018-05-09T13:34:34.348Z,3208.00
2018-05-09T13:36:30.266Z,3396.00
2018-05-09T13:37:30.265Z,3484.00
2018-05-09T13:39:28.231Z,3752.00
2018-05-09T13:40:29.225Z,3920.00
2018-05-09T13:42:24.213Z,4284.00
2018-05-09T13:43:24.250Z,4248.00
2018-05-09T13:45:22.656Z,4560.00
2018-05-09T13:46:22.222Z,4632.00
2018-05-09T13:48:19.126Z,4916.00
2018-05-09T13:49:19.640Z,5112.00
2018-05-09T13:51:17.102Z,5704.00
2018-05-09T13:52:17.092Z,5928.00
2018-05-09T13:54:14.065Z,5692.00
2018-05-09T13:55:13.098Z,5688.00
2018-05-09T13:57:09.079Z,5348.00
2018-05-09T13:58:09.078Z,5280.00
2018-05-09T14:00:06.050Z,5196.00
2018-05-09T14:01:05.066Z,5352.00
2018-05-09T14:03:01.530Z,4848.00
2018-05-09T14:04:01.033Z,4600.00
2018-05-09T14:05:57.990Z,4664.00
2018-05-09T14:06:57.035Z,4804.00
2018-05-09T14:08:53.498Z,4712.00
2018-05-09T14:09:53.068Z,4672.00
2018-05-09T14:11:49.991Z,4772.00
2018-05-09T14:12:48.986Z,4764.00
2018-05-09T14:14:47.978Z,4916.00
2018-05-09T14:15:47.111Z,4884.00
2018-05-09T14:17:45.064Z,5108.00
2018-05-09T14:18:45.112Z,5144.00
2018-05-09T14:20:45.040Z,4892.00
2018-05-09T14:21:44.051Z,4760.00
2018-05-09T14:23:39.685Z,4512.00
2018-05-09T14:24:39.206Z,4336.00
2018-05-09T14:26:35.140Z,3632.00
2018-05-09T14:27:35.130Z,3376.00
2018-05-09T14:29:31.168Z,2972.00
2018-05-09T14:30:31.106Z,2912.00
2018-05-09T14:32:28.067Z,2688.00
2018-05-09T14:33:27.626Z,2640.00
2018-05-09T14:35:26.051Z,2628.00
2018-05-09T14:36:25.080Z,2444.00
2018-05-09T14:38:23.527Z,2432.00
2018-05-09T14:39:24.025Z,2420.00
2018-05-09T14:41:21.149Z,2400.00
2018-05-09T14:42:21.166Z,2600.00
2018-05-09T14:44:20.122Z,3224.00
2018-05-09T14:45:19.260Z,3468.00
2018-05-09T14:47:19.220Z,3260.00
2018-05-09T14:48:17.408Z,2908.00
2018-05-09T14:50:13.405Z,2668.00
2018-05-09T14:51:14.375Z,2584.00
2018-05-09T14:53:12.890Z,2536.00
2018-05-09T14:54:12.306Z,2536.00
2018-05-09T14:56:07.466Z,2640.00
2018-05-09T14:57:08.017Z,2744.00
2018-05-09T14:59:06.506Z,2680.00
2018-05-09T15:00:06.468Z,2556.00
2018-05-09T15:02:03.972Z,2504.00
2018-05-09T15:03:03.663Z,2492.00
2018-05-09T15:05:01.546Z,2612.00
2018-05-09T15:06:01.558Z,2676.00
2018-05-09T15:08:00.022Z,2860.00
2018-05-09T15:08:59.498Z,3096.00
2018-05-09T15:10:55.497Z,3556.00
2018-05-09T15:11:55.985Z,3616.00
2018-05-09T15:13:53.948Z,3580.00
2018-05-09T15:14:53.459Z,3516.00
2018-05-09T15:16:48.645Z,3216.00
2018-05-09T15:17:48.444Z,3032.00
2018-05-09T15:19:45.353Z,2608.00
2018-05-09T15:20:44.557Z,2464.00
2018-05-09T15:22:40.545Z,2312.00
2018-05-09T15:23:41.534Z,2308.00
2018-05-09T15:25:39.021Z,2464.00
2018-05-09T15:26:39.002Z,2540.00
2018-05-09T15:28:37.460Z,2464.00
2018-05-09T15:29:37.405Z,2460.00
2018-05-09T15:31:35.434Z,2676.00
2018-05-09T15:32:35.456Z,2784.00
2018-05-09T15:34:32.927Z,2724.00
2018-05-09T15:35:32.583Z,2616.00
2018-05-09T15:37:31.116Z,2388.00
2018-05-09T15:38:31.469Z,2388.00
2018-05-09T15:40:29.709Z,2460.00
2018-05-09T15:41:28.686Z,2560.00
2018-05-09T15:43:24.661Z,2348.00
2018-05-09T15:44:24.615Z,2340.00
2018-05-09T15:46:22.098Z,2432.00
2018-05-09T15:47:21.107Z,2484.00
2018-05-09T15:49:19.046Z,2476.00
2018-05-09T15:50:18.639Z,2468.00
2018-05-09T15:52:14.524Z,2512.00
2018-05-09T15:53:15.535Z,2488.00
2018-05-09T15:55:11.507Z,2436.00
2018-05-09T15:56:11.525Z,2536.00
2018-05-09T15:58:07.465Z,2512.00
2018-05-09T15:59:06.513Z,2452.00
2018-05-09T16:01:11.525Z,2340.00
2018-05-09T16:02:09.042Z,2360.00
2018-05-09T16:04:06.498Z,2244.00
2018-05-09T16:05:05.956Z,2272.00
2018-05-09T16:07:03.939Z,2336.00
2018-05-09T16:08:02.937Z,2344.00
2018-05-09T16:10:00.843Z,2284.00
2018-05-09T16:11:00.132Z,2264.00
2018-05-09T16:12:59.130Z,2232.00
2018-05-09T16:13:59.101Z,2220.00
2018-05-09T16:15:56.643Z,2208.00
2018-05-09T16:16:57.099Z,2212.00
2018-05-09T16:18:52.293Z,2160.00
2018-05-09T16:19:52.195Z,2112.00
2018-05-09T16:21:50.155Z,2116.00
2018-05-09T16:22:50.161Z,2068.00
2018-05-09T16:24:49.661Z,1992.00
2018-05-09T16:25:49.148Z,2008.00
2018-05-09T16:27:46.277Z,1928.00
2018-05-09T16:28:46.807Z,1888.00
2018-05-09T16:30:46.192Z,1836.00
2018-05-09T16:31:45.266Z,1824.00
2018-05-09T16:33:44.788Z,1764.00
2018-05-09T16:34:44.772Z,1780.00
2018-05-09T16:36:43.271Z,1792.00
2018-05-09T16:37:43.759Z,1860.00
2018-05-09T16:39:41.725Z,1944.00
2018-05-09T16:40:40.909Z,1896.00
2018-05-09T16:42:39.393Z,1936.00
2018-05-09T16:43:39.872Z,1964.00
2018-05-09T16:45:39.447Z,2180.00
2018-05-09T16:46:36.977Z,2084.00
2018-05-09T16:48:35.940Z,2132.00
2018-05-09T16:49:35.995Z,2072.00
2018-05-09T16:51:32.116Z,1996.00
2018-05-09T16:52:32.098Z,1996.00
2018-05-09T16:54:27.101Z,2016.00
2018-05-09T16:55:27.099Z,2032.00
2018-05-09T16:57:25.107Z,2076.00
2018-05-09T16:58:26.076Z,2176.00
2018-05-09T17:00:23.536Z,2348.00
2018-05-09T17:01:24.144Z,2472.00
2018-05-09T17:03:22.020Z,2720.00
2018-05-09T17:04:21.021Z,2800.00
2018-05-09T17:06:19.498Z,2872.00
2018-05-09T17:07:19.521Z,3008.00
2018-05-09T17:09:19.444Z,2872.00
2018-05-09T17:10:19.421Z,2856.00
2018-05-09T17:12:18.413Z,2788.00
2018-05-09T17:13:17.589Z,2652.00
2018-05-09T17:15:17.061Z,2632.00
2018-05-09T17:16:15.717Z,2620.00
2018-05-09T17:18:14.190Z,2620.00
2018-05-09T17:19:13.797Z,2616.00
2018-05-09T17:21:15.691Z,2664.00
2018-05-09T17:22:17.169Z,2724.00
2018-05-09T17:24:11.237Z,2792.00
2018-05-09T17:25:11.306Z,2764.00
2018-05-09T17:27:10.199Z,2652.00
2018-05-09T17:28:10.183Z,2564.00
2018-05-09T17:30:11.598Z,2316.00
2018-05-09T17:31:11.580Z,2248.00
2018-05-09T17:33:10.926Z,2176.00
2018-05-09T17:34:10.030Z,2124.00
2018-05-09T17:36:07.995Z,1968.00
2018-05-09T17:37:07.653Z,1936.00
2018-05-09T17:39:03.607Z,1888.00
2018-05-09T17:40:03.599Z,1856.00
2018-05-09T17:42:03.568Z,1760.00
2018-05-09T17:43:01.741Z,1708.00
2018-05-09T17:45:00.237Z,1524.00
2018-05-09T17:45:59.927Z,1464.00
2018-05-09T17:47:58.808Z,1388.00
2018-05-09T17:48:57.888Z,1352.00
2018-05-09T17:50:57.368Z,1296.00
2018-05-09T17:51:56.074Z,1276.00
2018-05-09T17:53:54.583Z,1172.00
2018-05-09T17:54:54.031Z,1096.00
2018-05-09T17:56:53.039Z,980.00
2018-05-09T17:57:53.020Z,936.00
2018-05-09T17:59:51.195Z,880.00
2018-05-09T18:00:51.172Z,852.00
2018-05-09T18:02:50.846Z,836.00
2018-05-09T18:03:51.924Z,852.00
2018-05-09T18:05:49.309Z,864.00
2018-05-09T18:06:48.951Z,852.00
2018-05-09T18:08:47.925Z,788.00
2018-05-09T18:09:46.939Z,724.00
2018-05-09T18:11:42.909Z,604.00
2018-05-09T18:12:43.919Z,560.00
2018-05-09T18:14:43.473Z,512.00
2018-05-09T18:15:40.942Z,496.00
2018-05-09T18:17:36.864Z,460.00
2018-05-09T18:18:36.885Z,448.00
2018-05-09T18:20:38.348Z,424.00
2018-05-09T18:21:37.363Z,416.00
2018-05-09T18:23:36.866Z,404.00
2018-05-09T18:24:36.362Z,400.00